Time;durP1;ratioP1;P1;durP2;ratioP2;P2;SDS_P1;SDS_P2;PMS_P1;PMS_P2;Temp;Humidity;BMP_temperature;BMP_pressure;BME280_temperature;BME280_humidity;BME280_pressure;Samples;Min_cycle;Max_cycle;Signal;HPM_P1;HPM_P2
2023/04/04 00:00:13;;;;;;;19.00;13.38;;;3.70;99.90;;;2.82;100.00;102000.31;4220869;28;20068;-80
2023/04/04 00:02:14;;;;;;;21.48;12.77;;;3.70;99.90;;;2.77;100.00;101992.75;4220644;28;20414;-81
2023/04/04 00:04:16;;;;;;;19.70;12.93;;;3.70;99.90;;;2.78;100.00;101997.00;4220725;28;20028;-79
2023/04/04 00:06:20;;;;;;;18.85;13.40;;;3.70;99.90;;;2.78;100.00;101990.94;4220561;28;20085;-80
2023/04/04 00:08:21;;;;;;;17.42;12.85;;;3.70;99.90;;;2.70;100.00;101986.13;4219555;28;20041;-81
2023/04/04 00:10:22;;;;;;;18.13;12.98;;;3.70;99.90;;;2.76;100.00;101990.19;4202401;28;20032;-80
2023/04/04 00:12:23;;;;;;;18.90;12.68;;;3.60;99.90;;;2.70;100.00;101990.50;4203901;28;20036;-81
2023/04/04 00:14:24;;;;;;;18.17;13.48;;;3.60;99.90;;;2.73;100.00;101992.94;4202544;28;20037;-81
2023/04/04 00:16:25;;;;;;;20.48;12.82;;;3.60;99.90;;;2.71;100.00;101993.03;4203958;28;20266;-80
2023/04/04 00:18:25;;;;;;;18.25;12.73;;;3.60;99.90;;;2.69;100.00;101994.00;4203791;28;20534;-81
2023/04/04 00:20:26;;;;;;;20.63;13.45;;;3.60;99.90;;;2.67;100.00;101991.50;4209338;28;20057;-80
2023/04/04 00:22:27;;;;;;;19.70;13.05;;;3.60;99.90;;;2.65;100.00;101992.50;4203933;28;20029;-81
2023/04/04 00:25:11;;;;;;;18.45;13.35;;;3.50;99.90;;;2.62;100.00;101992.66;4203577;28;20020;-81
2023/04/04 00:27:12;;;;;;;19.33;12.82;;;3.50;99.90;;;2.58;100.00;101997.16;4203424;28;20025;-81
2023/04/04 00:29:12;;;;;;;17.50;12.65;;;3.50;99.90;;;2.53;100.00;101988.72;4202512;28;20384;-81
2023/04/04 00:31:14;;;;;;;19.92;13.25;;;3.50;99.90;;;2.53;100.00;101995.69;4202429;28;20032;-80
2023/04/04 00:33:15;;;;;;;19.55;13.32;;;3.40;99.90;;;2.46;100.00;101984.72;4203574;28;20029;-80
2023/04/04 00:35:17;;;;;;;21.50;13.43;;;3.40;99.90;;;2.50;100.00;101983.66;4214048;28;20028;-80
2023/04/04 00:37:18;;;;;;;20.85;12.57;;;3.40;99.90;;;2.48;100.00;101987.28;4207670;28;20058;-81
2023/04/04 00:39:19;;;;;;;19.58;14.25;;;3.40;99.90;;;2.47;100.00;101999.44;4218828;28;20031;-81
2023/04/04 00:41:20;;;;;;;20.08;13.18;;;3.40;99.90;;;2.42;100.00;101995.38;4209640;28;20407;-80
2023/04/04 00:43:21;;;;;;;18.88;12.85;;;3.40;99.90;;;2.40;100.00;101999.78;4202168;28;20024;-81
2023/04/04 00:45:22;;;;;;;16.80;13.32;;;3.30;99.90;;;2.39;100.00;101998.13;4202220;28;20020;-80
2023/04/04 00:47:24;;;;;;;18.92;13.13;;;3.30;99.90;;;2.38;100.00;102002.47;4202221;28;20147;-81
2023/04/04 00:49:25;;;;;;;21.13;12.68;;;3.30;99.90;;;2.37;100.00;102005.16;4218114;28;20035;-81
2023/04/04 00:51:26;;;;;;;19.58;12.63;;;3.30;99.90;;;2.34;100.00;102002.69;4208654;28;20078;-81
2023/04/04 00:53:27;;;;;;;17.63;13.07;;;3.30;99.90;;;2.28;100.00;101998.63;4203140;28;20032;-81
2023/04/04 00:55:28;;;;;;;18.38;12.73;;;3.20;99.90;;;2.27;100.00;102009.94;4203178;28;20078;-81
2023/04/04 00:57:31;;;;;;;16.85;11.88;;;3.20;99.90;;;2.23;100.00;102004.06;4202059;28;20077;-80
2023/04/04 00:59:32;;;;;;;16.55;12.07;;;3.20;99.90;;;2.22;100.00;102010.16;4209144;28;20031;-80
2023/04/04 01:01:35;;;;;;;19.63;12.95;;;3.10;99.90;;;2.21;100.00;102003.25;4204798;28;20154;-80
2023/04/04 01:03:36;;;;;;;19.15;13.00;;;3.10;99.90;;;2.19;100.00;102005.09;4213791;28;20036;-80
2023/04/04 01:05:37;;;;;;;19.98;13.13;;;3.10;99.90;;;2.18;100.00;102008.59;4203022;28;20044;-81
2023/04/04 01:07:39;;;;;;;19.02;13.70;;;3.10;99.90;;;2.15;100.00;102006.16;4212669;28;20016;-81
2023/04/04 01:09:40;;;;;;;18.80;12.98;;;3.10;99.90;;;2.13;100.00;102013.19;4215305;28;20115;-81
2023/04/04 01:11:41;;;;;;;20.20;14.23;;;3.00;99.90;;;2.12;100.00;102003.69;4201760;28;20036;-81
2023/04/04 01:13:43;;;;;;;20.83;13.45;;;3.00;99.90;;;2.07;100.00;101997.88;4211103;28;20028;-81
2023/04/04 01:15:44;;;;;;;21.70;13.40;;;3.00;99.90;;;2.12;100.00;102008.91;4201617;28;20028;-81
2023/04/04 01:17:45;;;;;;;19.70;13.10;;;3.00;99.90;;;2.10;100.00;102008.13;4201629;28;20087;-81
2023/04/04 01:19:58;;;;;;;17.88;12.88;;;3.00;99.90;;;2.11;100.00;102007.22;4205636;28;20580;-81
2023/04/04 01:22:00;;;;;;;18.75;11.95;;;3.00;99.90;;;2.11;100.00;101995.97;4202646;28;20029;-80
2023/04/04 01:24:03;;;;;;;19.52;13.25;;;3.00;99.90;;;2.12;100.00;102002.88;4201179;28;20025;-80
2023/04/04 01:26:05;;;;;;;16.77;11.60;;;3.10;99.90;;;2.10;100.00;102008.13;4202745;28;20028;-80
2023/04/04 01:28:06;;;;;;;18.02;12.00;;;3.00;99.90;;;2.08;100.00;102012.56;4202667;28;20031;-80
2023/04/04 01:30:08;;;;;;;18.80;12.15;;;3.00;99.90;;;2.07;100.00;102008.28;4206283;28;20017;-81
2023/04/04 01:32:32;;;;;;;19.02;13.13;;;3.00;99.90;;;2.06;100.00;102008.38;4201285;28;20427;-80
2023/04/04 01:34:52;;;;;;;17.88;13.32;;;3.00;99.90;;;2.05;100.00;102006.66;4201493;28;20039;-79
2023/04/04 01:37:25;;;;;;;19.10;12.55;;;3.00;99.90;;;2.00;100.00;102008.63;4201439;28;20055;-79
2023/04/04 01:39:31;;;;;;;17.17;12.30;;;3.00;99.90;;;1.94;100.00;102017.53;4193537;28;20535;-80
2023/04/04 01:41:34;;;;;;;20.27;12.50;;;2.90;99.90;;;1.92;100.00;102015.94;4206563;28;20412;-80
2023/04/04 01:43:36;;;;;;;16.25;12.00;;;2.90;99.90;;;1.91;100.00;102022.88;4201374;28;20021;-80
2023/04/04 01:45:37;;;;;;;17.42;12.80;;;2.90;99.90;;;1.89;100.00;102016.91;4201380;28;20483;-80
2023/04/04 01:47:42;;;;;;;16.50;11.57;;;2.80;99.90;;;1.86;100.00;102017.06;4226490;28;20127;-80
2023/04/04 01:49:43;;;;;;;17.52;11.63;;;2.80;99.90;;;1.90;100.00;102015.16;4219990;28;20034;-81
2023/04/04 01:51:45;;;;;;;20.20;13.35;;;2.80;99.90;;;1.90;100.00;102023.81;4202791;28;20083;-80
2023/04/04 01:53:46;;;;;;;16.45;12.07;;;2.80;99.90;;;1.86;100.00;102022.25;4206929;28;20043;-80
2023/04/04 01:55:46;;;;;;;21.30;13.35;;;2.70;99.90;;;1.86;100.00;102011.84;4218984;28;20024;-80
2023/04/04 01:57:47;;;;;;;17.90;11.95;;;2.80;99.90;;;1.86;100.00;102018.81;4217849;28;20031;-80
2023/04/04 01:59:48;;;;;;;16.92;11.75;;;2.80;99.90;;;1.83;100.00;102017.19;4215430;28;20075;-80
2023/04/04 02:01:49;;;;;;;13.50;10.13;;;2.80;99.90;;;1.80;100.00;102027.75;4206989;28;20024;-80
2023/04/04 02:03:50;;;;;;;17.27;11.73;;;2.70;99.90;;;1.76;100.00;102021.00;4209261;28;20028;-80
2023/04/04 02:05:51;;;;;;;16.70;11.25;;;2.70;99.90;;;1.74;100.00;102016.75;4209939;28;20487;-80
2023/04/04 02:07:52;;;;;;;17.10;11.63;;;2.70;99.90;;;1.71;100.00;102016.91;4210850;28;20023;-80
2023/04/04 02:09:53;;;;;;;19.45;12.40;;;2.60;99.90;;;1.70;100.00;102012.63;4206086;28;20021;-80
2023/04/04 02:11:54;;;;;;;17.75;11.85;;;2.70;99.90;;;1.73;100.00;102021.13;4208559;28;20046;-80
2023/04/04 02:13:56;;;;;;;18.45;11.73;;;2.60;99.90;;;1.73;100.00;102017.69;4218832;28;20028;-80
2023/04/04 02:15:57;;;;;;;17.95;12.15;;;2.60;99.90;;;1.73;100.00;102022.91;4217383;28;20040;-80
2023/04/04 02:17:57;;;;;;;18.10;11.25;;;2.60;99.90;;;1.75;100.00;102023.66;4218769;28;20486;-80
2023/04/04 02:19:58;;;;;;;18.25;12.57;;;2.60;99.90;;;1.66;100.00;102017.13;4218805;28;20028;-80
2023/04/04 02:21:59;;;;;;;17.50;11.52;;;2.60;99.90;;;1.70;100.00;102028.22;4217386;28;20507;-80
2023/04/04 02:24:00;;;;;;;18.15;11.27;;;2.60;99.90;;;1.69;100.00;102019.56;4218343;28;20032;-80
2023/04/04 02:26:01;;;;;;;17.20;11.55;;;2.60;99.90;;;1.68;100.00;102015.28;4218502;28;20024;-80
2023/04/04 02:28:02;;;;;;;16.20;11.23;;;2.60;99.90;;;1.66;100.00;102017.97;4217259;28;20024;-80
2023/04/04 02:30:03;;;;;;;17.67;11.38;;;2.60;99.90;;;1.63;100.00;102001.66;4218597;28;20563;-81
2023/04/04 02:32:04;;;;;;;18.55;12.15;;;2.60;99.90;;;1.64;100.00;102005.94;4216633;28;20056;-80
2023/04/04 02:34:05;;;;;;;16.70;11.35;;;2.50;99.90;;;1.64;100.00;102011.16;4205820;28;20028;-80
2023/04/04 02:36:06;;;;;;;17.75;10.48;;;2.60;99.90;;;1.60;100.00;102010.44;4217200;28;20024;-81
2023/04/04 02:38:07;;;;;;;18.55;11.07;;;2.50;99.90;;;1.56;100.00;102008.03;4218689;28;20107;-80
2023/04/04 02:40:08;;;;;;;16.58;11.15;;;2.50;99.90;;;1.58;100.00;102006.22;4218165;28;20491;-81
2023/04/04 02:42:09;;;;;;;17.70;12.13;;;2.50;99.90;;;1.56;100.00;102002.81;4219846;28;20426;-81
2023/04/04 02:44:10;;;;;;;18.98;12.80;;;2.50;99.90;;;1.55;100.00;102008.94;4220906;28;20029;-80
2023/04/04 02:46:11;;;;;;;18.25;11.98;;;2.50;99.90;;;1.54;100.00;102017.66;4211610;28;20080;-80
2023/04/04 02:48:12;;;;;;;16.77;12.23;;;2.50;99.90;;;1.52;100.00;102007.31;4200416;28;20032;-80
2023/04/04 02:50:13;;;;;;;18.70;11.60;;;2.50;99.90;;;1.54;100.00;102015.06;4200652;28;20475;-81
2023/04/04 02:52:14;;;;;;;17.73;12.02;;;2.50;99.90;;;1.51;100.00;102015.19;4208371;28;20471;-81
2023/04/04 02:54:14;;;;;;;16.95;11.38;;;2.40;99.90;;;1.48;100.00;102020.53;4218220;28;20042;-80
2023/04/04 02:56:15;;;;;;;17.73;11.00;;;2.40;99.90;;;1.45;100.00;102015.44;4217137;28;20032;-81
2023/04/04 02:58:16;;;;;;;16.65;11.82;;;2.40;99.90;;;1.46;100.00;102019.75;4217213;28;20040;-81
2023/04/04 03:00:18;;;;;;;16.02;10.07;;;2.40;99.90;;;1.42;100.00;102015.59;4218549;28;20035;-81
2023/04/04 03:02:19;;;;;;;16.83;10.82;;;2.40;99.90;;;1.43;100.00;102017.28;4218371;28;20035;-81
2023/04/04 03:04:20;;;;;;;15.02;11.15;;;2.40;99.90;;;1.43;100.00;102030.28;4217115;28;20024;-81
2023/04/04 03:06:21;;;;;;;16.33;10.50;;;2.40;99.90;;;1.38;100.00;102022.66;4218154;28;20012;-80
2023/04/04 03:08:22;;;;;;;16.98;10.13;;;2.40;99.90;;;1.35;100.00;102016.75;4217814;28;20053;-80
2023/04/04 03:10:25;;;;;;;14.50;10.27;;;2.30;99.90;;;1.30;100.00;102010.91;4200562;28;20504;-81
2023/04/04 03:12:26;;;;;;;13.75;9.45;;;2.30;99.90;;;1.29;100.00;102019.63;4200401;28;20545;-81
2023/04/04 03:14:28;;;;;;;15.82;10.70;;;2.20;99.90;;;1.32;100.00;102019.47;4216940;28;20032;-79
2023/04/04 03:16:29;;;;;;;14.52;10.55;;;2.30;99.90;;;1.31;100.00;102015.22;4218741;28;20066;-80
2023/04/04 03:18:30;;;;;;;16.00;9.10;;;2.20;99.90;;;1.32;100.00;102014.28;4217109;28;20024;-80
2023/04/04 03:20:31;;;;;;;17.17;10.80;;;2.20;99.90;;;1.34;100.00;102020.28;4218237;28;20061;-80
2023/04/04 03:22:32;;;;;;;16.52;11.18;;;2.20;99.90;;;1.32;100.00;102015.13;4223034;28;20390;-80
2023/04/04 03:24:34;;;;;;;16.35;11.25;;;2.20;99.90;;;1.32;100.00;102014.28;4204620;28;20025;-80
2023/04/04 03:26:36;;;;;;;20.52;11.43;;;2.20;99.90;;;1.33;100.00;102013.38;4211557;28;20016;-81
2023/04/04 03:28:37;;;;;;;15.27;10.45;;;2.20;99.90;;;1.33;100.00;102015.97;4237023;28;20023;-81
2023/04/04 03:30:38;;;;;;;18.80;12.45;;;2.20;99.90;;;1.37;100.00;102017.56;4220036;28;20027;-80
2023/04/04 03:32:39;;;;;;;14.88;11.45;;;2.30;99.90;;;1.32;100.00;102002.13;4216549;28;20448;-80
2023/04/04 03:34:40;;;;;;;15.52;11.45;;;2.20;99.90;;;1.37;100.00;102015.81;4204478;28;20071;-80
2023/04/04 03:36:41;;;;;;;17.08;11.73;;;2.20;99.90;;;1.35;100.00;102008.94;4204432;28;20400;-80
2023/04/04 03:38:41;;;;;;;16.55;11.60;;;2.30;99.90;;;1.33;100.00;102008.19;4202866;28;20028;-80
2023/04/04 03:40:42;;;;;;;15.48;10.60;;;2.20;99.90;;;1.33;100.00;102013.38;4203397;28;20033;-80
2023/04/04 03:42:43;;;;;;;13.48;9.85;;;2.20;99.90;;;1.29;100.00;102009.22;4204492;28;20043;-80
2023/04/04 03:44:44;;;;;;;12.93;10.13;;;2.20;99.90;;;1.26;100.00;102010.19;4204304;28;20024;-80
2023/04/04 03:46:45;;;;;;;16.92;11.18;;;2.20;99.90;;;1.26;100.00;102015.41;4204249;28;20024;-81
2023/04/04 03:48:46;;;;;;;16.55;11.68;;;2.20;99.90;;;1.28;100.00;102012.75;4204333;28;20028;-80
2023/04/04 03:50:47;;;;;;;14.80;11.38;;;2.20;99.90;;;1.29;100.00;102017.00;4204150;28;20075;-80
2023/04/04 03:52:48;;;;;;;18.17;11.65;;;2.20;99.90;;;1.29;100.00;102014.41;4204130;28;20035;-80
2023/04/04 03:54:48;;;;;;;17.58;11.60;;;2.20;99.90;;;1.33;100.00;102015.97;4215065;28;20035;-80
2023/04/04 03:56:51;;;;;;;20.40;12.57;;;2.20;99.90;;;1.32;100.00;102009.94;4224532;28;20036;-80
2023/04/04 03:58:54;;;;;;;16.67;11.77;;;2.20;99.90;;;1.33;100.00;102021.19;4208480;28;20067;-80
2023/04/04 04:00:55;;;;;;;15.98;11.88;;;2.30;99.90;;;1.33;100.00;102016.84;4213927;28;20126;-80
2023/04/04 04:02:56;;;;;;;17.48;11.25;;;2.30;99.90;;;1.33;100.00;102022.03;4218623;28;20032;-80
2023/04/04 04:04:57;;;;;;;15.95;10.73;;;2.30;99.90;;;1.35;100.00;102029.75;4207977;28;20043;-80
2023/04/04 04:06:57;;;;;;;16.92;10.45;;;2.30;99.90;;;1.34;100.00;102020.28;4220772;28;20027;-79
2023/04/04 04:08:58;;;;;;;16.70;9.80;;;2.30;99.90;;;1.31;100.00;102025.63;4203231;28;20439;-80
2023/04/04 04:11:06;;;;;;;13.63;9.45;;;2.20;99.90;;;1.28;100.00;102024.00;4217621;28;20024;-80
2023/04/04 04:13:07;;;;;;;18.50;9.60;;;2.20;99.90;;;1.19;100.00;102019.19;4219561;28;20491;-80
2023/04/04 04:15:09;;;;;;;16.85;10.85;;;2.20;99.90;;;1.22;100.00;102020.81;4219435;28;20016;-80
2023/04/04 04:17:10;;;;;;;14.50;10.10;;;2.10;99.90;;;1.20;100.00;102028.66;4236146;28;20540;-80
2023/04/04 04:19:10;;;;;;;11.88;8.95;;;2.10;99.90;;;1.11;100.00;102021.25;4220469;28;20054;-80
2023/04/04 04:21:11;;;;;;;12.88;8.98;;;2.10;99.90;;;1.06;100.00;102021.44;4219560;28;20036;-80
2023/04/04 04:23:12;;;;;;;12.45;9.30;;;2.10;99.90;;;1.02;100.00;102030.28;4220623;28;20032;-80
2023/04/04 04:25:14;;;;;;;13.77;9.50;;;2.00;99.90;;;1.01;100.00;102038.16;4220262;28;20032;-80
2023/04/04 04:27:15;;;;;;;13.75;9.60;;;2.00;99.90;;;1.01;100.00;102025.16;4220266;28;20024;-80
2023/04/04 04:29:16;;;;;;;12.55;8.32;;;1.90;99.90;;;1.02;100.00;102035.47;4220456;28;20035;-80
2023/04/04 04:31:17;;;;;;;14.07;9.68;;;1.90;99.90;;;1.01;100.00;102030.34;4219265;28;20028;-80
2023/04/04 04:33:18;;;;;;;17.20;11.07;;;2.00;99.90;;;1.01;100.00;102033.78;4207908;28;20021;-80
2023/04/04 04:35:19;;;;;;;18.20;11.98;;;1.90;99.90;;;1.02;100.00;102032.88;4201668;28;20033;-81
2023/04/04 04:37:20;;;;;;;23.23;12.35;;;1.90;99.90;;;1.01;100.00;102031.19;4185664;28;20024;-80
2023/04/04 04:39:21;;;;;;;19.02;12.70;;;1.90;99.90;;;1.00;100.00;102028.66;4202124;28;20384;-80
2023/04/04 04:41:22;;;;;;;18.98;12.10;;;2.00;99.90;;;1.05;100.00;102034.47;4202149;28;20033;-80
2023/04/04 04:43:23;;;;;;;19.98;12.40;;;1.90;99.90;;;1.02;100.00;102027.66;4203377;28;20031;-81
2023/04/04 04:45:25;;;;;;;17.40;11.75;;;2.00;99.90;;;1.03;100.00;102034.56;4202367;28;20438;-80
2023/04/04 04:47:26;;;;;;;18.45;10.95;;;1.90;99.90;;;1.05;100.00;102043.13;4211504;28;20020;-80
2023/04/04 04:49:27;;;;;;;18.50;10.82;;;2.00;99.90;;;1.06;100.00;102055.22;4194652;28;20024;-80
2023/04/04 04:51:28;;;;;;;18.60;12.60;;;2.00;99.90;;;1.02;100.00;102053.66;4203217;28;20017;-80
2023/04/04 04:53:29;;;;;;;19.50;12.23;;;2.00;99.90;;;1.03;100.00;102054.50;4200737;28;20469;-80
2023/04/04 04:55:30;;;;;;;21.02;12.55;;;2.00;99.90;;;1.03;100.00;102060.56;4207795;28;20554;-80
2023/04/04 04:57:33;;;;;;;19.92;13.25;;;2.00;99.90;;;1.07;100.00;102066.47;4219982;28;20028;-80
2023/04/04 04:59:34;;;;;;;19.17;12.57;;;2.00;99.90;;;1.07;100.00;102058.69;4218701;28;20016;-81
2023/04/04 05:01:34;;;;;;;21.23;12.90;;;2.00;99.90;;;1.08;100.00;102068.13;4219812;28;20081;-80
2023/04/04 05:03:35;;;;;;;20.70;12.70;;;2.00;99.90;;;1.08;100.00;102069.00;4219836;28;20028;-80
2023/04/04 05:05:36;;;;;;;20.58;13.57;;;2.00;99.90;;;1.13;100.00;102070.56;4219831;28;20024;-81
2023/04/04 05:07:37;;;;;;;17.92;13.40;;;2.00;99.90;;;1.15;100.00;102058.34;4223560;28;20016;-81
2023/04/04 05:09:38;;;;;;;20.60;13.38;;;2.10;99.90;;;1.24;100.00;102074.41;4202096;28;20075;-81
2023/04/04 05:11:40;;;;;;;18.10;12.27;;;2.10;99.90;;;1.23;100.00;102070.09;4209071;28;20032;-81
2023/04/04 05:13:40;;;;;;;24.52;13.48;;;2.10;99.90;;;1.27;100.00;102058.69;4219439;28;20028;-81
2023/04/04 05:15:41;;;;;;;21.05;13.65;;;2.20;99.90;;;1.29;100.00;102066.41;4218489;28;20098;-81
2023/04/04 05:17:42;;;;;;;18.77;12.98;;;2.20;99.90;;;1.26;100.00;102063.94;4218231;28;20066;-81
2023/04/04 05:19:43;;;;;;;19.60;12.80;;;2.20;99.90;;;1.29;100.00;102067.25;4223539;28;20024;-81
2023/04/04 05:21:44;;;;;;;20.50;12.98;;;2.20;99.90;;;1.30;100.00;102071.53;4217871;28;20483;-80
2023/04/04 05:23:47;;;;;;;18.70;13.45;;;2.20;99.90;;;1.25;100.00;102064.84;4201348;28;20199;-79
2023/04/04 05:25:52;;;;;;;20.30;13.50;;;2.20;99.90;;;1.19;100.00;102054.72;4202495;28;20017;-80
2023/04/04 05:27:54;;;;;;;20.10;12.82;;;2.10;99.90;;;1.20;100.00;102066.78;4202700;28;20029;-81
2023/04/04 05:29:56;;;;;;;22.70;13.65;;;2.20;99.90;;;1.17;100.00;102078.16;4201663;28;20025;-80
2023/04/04 05:31:57;;;;;;;19.45;12.57;;;2.10;99.90;;;1.18;100.00;102081.59;4222370;28;20110;-80
2023/04/04 05:33:59;;;;;;;19.58;13.02;;;2.10;99.90;;;1.13;100.00;102070.56;4203199;28;20074;-81
2023/04/04 05:36:00;;;;;;;17.30;12.00;;;2.10;99.90;;;1.10;100.00;102087.13;4201426;28;20068;-81
2023/04/04 05:38:00;;;;;;;18.15;11.93;;;2.00;99.90;;;1.08;100.00;102088.91;4202512;28;20514;-79
2023/04/04 05:40:01;;;;;;;15.20;10.95;;;2.00;99.90;;;0.98;100.00;102085.88;4202294;28;20028;-79
2023/04/04 05:42:02;;;;;;;17.95;12.73;;;2.00;99.90;;;0.98;100.00;102088.47;4205799;28;20423;-79
2023/04/04 05:44:03;;;;;;;16.33;11.73;;;1.90;99.90;;;0.96;100.00;102079.03;4208229;28;20107;-80
2023/04/04 05:46:04;;;;;;;22.00;13.55;;;1.90;99.90;;;0.97;100.00;102075.53;4217857;28;20024;-80
2023/04/04 05:48:05;;;;;;;20.48;12.60;;;1.90;99.90;;;0.98;100.00;102085.03;4217773;28;20048;-80
2023/04/04 05:50:07;;;;;;;18.70;12.27;;;1.90;99.90;;;0.94;100.00;102078.25;4218883;28;20372;-81
2023/04/04 05:52:09;;;;;;;17.55;11.85;;;1.90;99.90;;;0.96;100.00;102085.06;4212352;28;20376;-79
2023/04/04 05:54:10;;;;;;;20.02;12.65;;;1.90;99.90;;;1.01;100.00;102090.09;4211164;28;20364;-80
2023/04/04 05:56:11;;;;;;;18.40;11.68;;;1.90;99.90;;;0.98;100.00;102085.88;4218934;28;20043;-80
2023/04/04 05:58:12;;;;;;;17.70;12.02;;;1.90;99.90;;;0.99;100.00;102095.34;4219056;28;20508;-79
2023/04/04 06:00:14;;;;;;;18.15;11.88;;;1.90;99.90;;;0.96;100.00;102084.22;4219115;28;20024;-80
2023/04/04 06:02:16;;;;;;;17.42;11.77;;;1.90;99.90;;;0.96;100.00;102085.06;4200858;28;20451;-80
2023/04/04 06:04:17;;;;;;;19.63;12.15;;;2.00;99.90;;;0.99;100.00;102091.91;4207072;28;20059;-80
2023/04/04 06:06:18;;;;;;;18.13;12.68;;;2.00;99.90;;;1.06;100.00;102095.94;4201978;28;20024;-81
2023/04/04 06:08:18;;;;;;;16.88;12.23;;;2.00;99.90;;;1.07;100.00;102098.50;4212764;28;20048;-80
2023/04/04 06:10:19;;;;;;;22.05;12.85;;;2.00;99.90;;;1.09;100.00;102094.06;4210440;28;20073;-80
2023/04/04 06:12:20;;;;;;;16.58;12.18;;;2.00;99.90;;;1.08;100.00;102102.75;4228174;28;20032;-81
2023/04/04 06:14:21;;;;;;;19.10;12.80;;;2.10;99.90;;;1.09;100.00;102095.81;4204884;28;20028;-83
2023/04/04 06:16:22;;;;;;;16.23;11.15;;;2.00;99.90;;;1.11;100.00;102097.44;4205442;28;20062;-82
2023/04/04 06:18:23;;;;;;;15.30;11.15;;;2.10;99.90;;;1.17;100.00;102100.69;4217647;28;20066;-79
2023/04/04 06:20:24;;;;;;;13.73;10.90;;;2.10;99.90;;;1.18;100.00;102099.78;4218683;28;20036;-79
2023/04/04 06:22:25;;;;;;;21.27;12.07;;;2.10;99.90;;;1.16;100.00;102099.88;4220773;28;20027;-78
2023/04/04 06:24:26;;;;;;;16.33;11.38;;;2.10;99.90;;;1.20;100.00;102106.63;4200537;28;20028;-79
2023/04/04 06:26:27;;;;;;;16.85;10.93;;;2.10;99.90;;;1.19;100.00;102107.53;4201911;28;20028;-79
2023/04/04 06:28:27;;;;;;;14.93;10.90;;;2.10;99.90;;;1.20;100.00;102105.75;4201893;28;20028;-78
2023/04/04 06:30:29;;;;;;;15.02;10.95;;;2.10;99.90;;;1.19;100.00;102111.88;4201735;28;20021;-78
2023/04/04 06:32:31;;;;;;;17.92;11.50;;;2.20;99.90;;;1.18;100.00;102110.19;4215694;28;20060;-79
2023/04/04 06:34:31;;;;;;;15.45;11.48;;;2.20;99.90;;;1.25;100.00;102116.84;4200911;28;20460;-79
2023/04/04 06:36:32;;;;;;;17.05;11.82;;;2.20;99.90;;;1.27;100.00;102115.88;4200605;28;20040;-79
2023/04/04 06:38:33;;;;;;;17.90;11.82;;;2.20;99.90;;;1.34;100.00;102117.31;4202275;28;20024;-79
2023/04/04 06:40:35;;;;;;;14.35;10.63;;;2.30;99.90;;;1.41;100.00;102123.06;4200601;28;20153;-79
2023/04/04 06:42:36;;;;;;;18.20;11.82;;;2.40;99.90;;;1.43;100.00;102131.69;4208297;28;20032;-78
2023/04/04 06:44:36;;;;;;;16.80;10.98;;;2.40;99.90;;;1.44;100.00;102129.00;4200448;28;20025;-79
2023/04/04 06:46:38;;;;;;;16.48;10.55;;;2.40;99.90;;;1.47;100.00;102130.63;4201690;28;20025;-79
2023/04/04 06:48:38;;;;;;;16.67;12.10;;;2.40;99.90;;;1.54;100.00;102124.25;4201668;28;20025;-79
2023/04/04 06:50:39;;;;;;;18.17;12.82;;;2.50;99.90;;;1.61;100.00;102134.31;4200439;28;20373;-79
2023/04/04 06:52:40;;;;;;;16.45;11.35;;;2.50;99.90;;;1.66;100.00;102134.16;4200487;28;20074;-79
2023/04/04 06:54:41;;;;;;;16.00;11.88;;;2.60;99.90;;;1.75;100.00;102125.94;4200265;28;20021;-79
2023/04/04 06:56:42;;;;;;;18.13;12.07;;;2.70;99.90;;;1.88;100.00;102124.50;4200415;28;20033;-79
2023/04/04 06:58:43;;;;;;;16.80;11.20;;;2.70;99.90;;;1.90;100.00;102122.69;4218453;28;20458;-79
2023/04/04 07:00:44;;;;;;;18.52;12.30;;;2.80;99.90;;;2.04;100.00;102125.53;4205039;28;20029;-79
2023/04/04 07:02:45;;;;;;;18.20;13.10;;;2.90;99.90;;;2.18;100.00;102128.34;4217456;28;20074;-79
2023/04/04 07:04:46;;;;;;;19.38;13.98;;;3.00;99.90;;;2.31;100.00;102130.41;4221599;28;20032;-79
2023/04/04 07:06:47;;;;;;;19.92;13.00;;;3.10;99.90;;;2.39;100.00;102136.94;4221771;28;20052;-79
2023/04/04 07:08:49;;;;;;;20.10;12.52;;;3.20;99.90;;;2.51;100.00;102133.78;4216541;28;20461;-79
2023/04/04 07:10:50;;;;;;;20.67;13.30;;;3.40;99.90;;;2.61;100.00;102136.81;4203674;28;20029;-79
2023/04/04 07:12:51;;;;;;;17.08;12.48;;;3.40;99.90;;;2.68;100.00;102139.09;4204728;28;20482;-80
2023/04/04 07:14:52;;;;;;;20.80;12.80;;;3.50;99.90;;;2.71;100.00;102132.88;4203593;28;20021;-80
2023/04/04 07:16:53;;;;;;;19.27;12.20;;;3.60;99.90;;;2.79;100.00;102133.34;4203625;28;20035;-80
2023/04/04 07:18:54;;;;;;;20.88;11.77;;;3.70;99.90;;;2.84;100.00;102136.56;4203533;28;20028;-80
2023/04/04 07:20:56;;;;;;;19.08;12.18;;;3.70;99.90;;;2.94;100.00;102139.59;4204659;28;20470;-80
2023/04/04 07:22:57;;;;;;;14.35;11.82;;;3.80;99.90;;;3.00;100.00;102142.75;4204633;28;20115;-80
2023/04/04 07:24:58;;;;;;;19.15;11.93;;;3.90;99.90;;;3.08;100.00;102140.63;4203232;28;20029;-80
2023/04/04 07:26:58;;;;;;;17.13;10.75;;;4.00;99.90;;;3.13;100.00;102138.66;4204660;28;20025;-80
2023/04/04 07:29:00;;;;;;;19.67;11.93;;;4.00;99.90;;;3.24;100.00;102138.97;4208034;28;20103;-80
2023/04/04 07:31:01;;;;;;;17.67;11.40;;;4.10;99.90;;;3.30;100.00;102130.00;4209205;28;20026;-80
2023/04/04 07:33:03;;;;;;;16.17;11.23;;;4.20;99.90;;;3.43;100.00;102138.06;4220269;28;20502;-80
2023/04/04 07:35:08;;;;;;;15.35;10.57;;;4.30;99.90;;;3.51;100.00;102126.31;4217345;28;20399;-80
2023/04/04 07:37:09;;;;;;;13.32;9.73;;;4.40;99.90;;;3.58;100.00;102132.09;4224223;28;20123;-80
2023/04/04 07:39:10;;;;;;;17.38;11.57;;;4.40;99.90;;;3.68;100.00;102135.91;4204259;28;20024;-80
2023/04/04 07:41:11;;;;;;;16.83;10.38;;;4.50;99.90;;;3.80;100.00;102119.59;4204406;28;20407;-80
2023/04/04 07:43:11;;;;;;;12.32;8.93;;;4.60;99.90;;;3.81;100.00;102118.69;4198199;28;20017;-80
2023/04/04 07:45:13;;;;;;;17.83;9.57;;;4.70;99.90;;;3.91;100.00;102125.13;4219794;28;20039;-80
2023/04/04 07:47:15;;;;;;;14.45;9.60;;;4.80;99.90;;;3.98;100.00;102123.88;4216177;28;20025;-80
2023/04/04 07:49:16;;;;;;;11.02;7.22;;;4.80;99.90;;;4.03;100.00;102118.44;4194704;28;20064;-80
2023/04/04 07:51:16;;;;;;;15.45;8.80;;;4.90;99.90;;;4.08;100.00;102132.09;4205725;28;20483;-80
2023/04/04 07:53:17;;;;;;;11.82;7.97;;;5.00;99.90;;;4.15;100.00;102128.22;4203848;28;20403;-80
2023/04/04 07:55:19;;;;;;;10.38;8.65;;;5.00;99.90;;;4.20;100.00;102127.06;4204184;28;20488;-80
2023/04/04 07:57:20;;;;;;;15.80;9.40;;;5.10;99.90;;;4.26;100.00;102126.75;4204156;28;20036;-80
2023/04/04 07:59:20;;;;;;;15.35;8.10;;;5.20;99.90;;;4.34;100.00;102134.16;4202910;28;20029;-80
2023/04/04 08:01:21;;;;;;;12.90;8.55;;;5.20;99.90;;;4.48;100.00;102127.25;4204925;28;20058;-80
2023/04/04 08:03:24;;;;;;;9.60;7.28;;;5.30;99.90;;;4.53;100.00;102134.84;4220784;28;20039;-80
2023/04/04 08:05:25;;;;;;;12.07;7.72;;;5.40;99.90;;;4.66;100.00;102135.03;4219663;28;20048;-80
2023/04/04 08:07:27;;;;;;;13.85;7.88;;;5.50;99.90;;;4.72;100.00;102135.53;4216570;28;20086;-80
2023/04/04 08:09:33;;;;;;;9.98;6.50;;;5.60;99.90;;;4.77;100.00;102133.50;4205370;28;20079;-80
2023/04/04 08:11:34;;;;;;;11.63;7.93;;;5.70;99.90;;;4.83;100.00;102129.72;4202568;28;20067;-79
2023/04/04 08:13:35;;;;;;;11.38;7.38;;;5.80;99.90;;;4.92;100.00;102127.44;4202745;28;20024;-79
2023/04/04 08:15:36;;;;;;;10.77;6.40;;;5.90;99.90;;;5.00;100.00;102129.59;4202740;28;20021;-80
2023/04/04 08:17:38;;;;;;;12.48;8.30;;;6.00;99.90;;;5.16;100.00;102133.06;4215636;28;20075;-80
2023/04/04 08:19:38;;;;;;;8.57;6.13;;;6.00;99.90;;;5.26;100.00;102139.41;4209114;28;20028;-80
2023/04/04 08:21:39;;;;;;;12.43;6.28;;;6.10;99.90;;;5.33;100.00;102132.91;4219407;28;20077;-79